Time;durP1;ratioP1;P1;durP2;ratioP2;P2;SDS_P1;SDS_P2;PMS_P1;PMS_P2;Temp;Humidity;BMP_temperature;BMP_pressure;BME280_temperature;BME280_humidity;BME280_pressure;Samples;Min_cycle;Max_cycle;Signal;HPM_P1;HPM_P2
2020/12/06 00:00:37;;;;;;;20.17;16.40;;;;;;;17.90;37.60;94646.06;4998131;28;20050;-49
2020/12/06 00:03:04;;;;;;;22.73;17.35;;;;;;;17.80;37.43;94651.78;5006305;28;20057;-49
2020/12/06 00:05:31;;;;;;;19.73;14.45;;;;;;;18.75;36.47;94645.53;5016531;28;20056;-52
2020/12/06 00:07:58;;;;;;;19.17;15.40;;;;;;;18.07;37.24;94655.72;4998042;28;20361;-53
2020/12/06 00:10:25;;;;;;;16.95;12.85;;;;;;;18.68;36.82;94655.88;4998047;28;20054;-51
2020/12/06 00:12:52;;;;;;;20.38;16.77;;;;;;;18.11;36.37;94651.34;5004148;28;20060;-48
2020/12/06 00:15:19;;;;;;;28.00;21.35;;;;;;;17.78;37.04;94662.69;5017548;28;20041;-50
2020/12/06 00:17:46;;;;;;;28.83;21.80;;;;;;;17.51;37.46;94661.31;5015224;28;20049;-50
2020/12/06 00:20:24;;;;;;;18.77;15.10;;;;;;;18.25;37.48;94654.47;5017731;28;20461;-50
2020/12/06 00:22:51;;;;;;;19.50;14.23;;;;;;;18.01;38.16;94657.03;5017030;28;20060;-49
2020/12/06 00:25:18;;;;;;;20.20;15.02;;;;;;;18.03;37.81;94657.47;5017252;28;20046;-49
2020/12/06 00:27:45;;;;;;;18.20;14.25;;;;;;;18.46;37.06;94663.09;5012623;28;20058;-50
2020/12/06 00:30:12;;;;;;;20.88;16.15;;;;;;;18.08;37.27;94647.47;4997537;28;20058;-48
2020/12/06 00:32:40;;;;;;;20.65;16.00;;;;;;;17.90;38.02;94650.59;5001353;28;20057;-49
2020/12/06 00:35:08;;;;;;;19.83;15.68;;;;;;;17.54;38.01;94662.53;5017156;28;20049;-49
2020/12/06 00:37:37;;;;;;;21.58;16.83;;;;;;;17.55;36.60;94659.56;5001388;28;20065;-48
2020/12/06 00:40:05;;;;;;;20.75;15.70;;;;;;;17.48;38.66;94655.88;4997355;28;20054;-47
2020/12/06 00:42:33;;;;;;;18.58;15.18;;;;;;;17.75;38.34;94655.41;4999473;28;20085;-51
2020/12/06 00:45:01;;;;;;;21.00;16.00;;;;;;;17.40;37.99;94665.41;5016503;28;20046;-49
2020/12/06 00:47:28;;;;;;;23.15;16.92;;;;;;;17.39;38.71;94663.09;5007713;28;20049;-49
2020/12/06 00:49:55;;;;;;;23.15;18.23;;;;;;;17.65;37.50;94666.31;4997267;28;20061;-47
2020/12/06 00:52:22;;;;;;;25.92;19.17;;;;;;;17.77;37.84;94666.41;4997106;28;20050;-48
2020/12/06 00:54:50;;;;;;;29.63;23.45;;;;;;;17.80;36.27;94652.53;5015778;28;20054;-48
2020/12/06 00:57:17;;;;;;;22.40;17.10;;;;;;;18.23;36.64;94650.63;5015320;28;20046;-51
2020/12/06 00:59:44;;;;;;;19.90;15.80;;;;;;;17.84;38.00;94653.44;5016629;28;20433;-51
2020/12/06 01:02:12;;;;;;;22.75;18.15;;;;;;;18.06;36.55;94638.31;5011590;28;20057;-49
2020/12/06 01:04:39;;;;;;;20.88;16.92;;;;;;;18.01;36.99;94646.47;5015969;28;20050;-51
2020/12/06 01:07:06;;;;;;;20.02;15.80;;;;;;;18.27;35.56;94660.22;5016397;28;20049;-48
2020/12/06 01:09:33;;;;;;;14.27;10.77;;;;;;;19.07;36.03;94651.81;5016500;28;20046;-49
2020/12/06 01:12:00;;;;;;;17.83;12.75;;;;;;;18.06;37.67;94643.59;5016499;28;20076;-50
2020/12/06 01:14:27;;;;;;;19.88;14.27;;;;;;;18.06;37.33;94639.09;5016114;28;20429;-51
2020/12/06 01:16:54;;;;;;;16.95;13.75;;;;;;;17.69;38.38;94647.97;5011786;28;20361;-48
2020/12/06 01:19:21;;;;;;;20.95;16.75;;;;;;;18.26;36.14;94647.31;4996995;28;20377;-50
2020/12/06 01:21:52;;;;;;;16.85;13.60;;;;;;;17.89;37.73;94649.81;4996641;28;20054;-48
2020/12/06 01:24:19;;;;;;;21.13;16.42;;;;;;;18.51;36.20;94651.56;5012327;28;20357;-50
2020/12/06 01:26:50;;;;;;;19.50;13.02;;;;;;;18.43;36.47;94647.88;5016005;28;20046;-47
2020/12/06 01:29:18;;;;;;;19.60;15.45;;;;;;;18.01;36.65;94647.22;5016196;28;20050;-50
2020/12/06 01:31:47;;;;;;;15.40;10.82;;;;;;;18.65;37.06;94648.59;5016107;28;20069;-49
2020/12/06 01:34:15;;;;;;;15.07;12.32;;;;;;;18.45;37.10;94640.38;5002829;28;20476;-48
2020/12/06 01:36:42;;;;;;;14.20;10.65;;;;;;;18.24;37.56;94644.22;4996194;28;20050;-47
2020/12/06 01:39:09;;;;;;;16.65;11.30;;;;;;;18.16;37.62;94649.25;4996393;28;20046;-49
2020/12/06 01:41:36;;;;;;;12.40;9.85;;;;;;;18.36;37.66;94639.72;4996353;28;20054;-47
2020/12/06 01:44:04;;;;;;;13.25;10.57;;;;;;;18.87;36.38;94634.94;5000645;28;20057;-48
2020/12/06 01:46:32;;;;;;;12.65;9.15;;;;;;;19.63;34.81;94631.53;4996532;28;20051;-48
2020/12/06 01:48:59;;;;;;;15.63;10.85;;;;;;;19.25;35.25;94633.78;5014788;28;20060;-50
2020/12/06 01:51:26;;;;;;;14.57;10.07;;;;;;;18.45;36.93;94640.38;5006052;28;20050;-48
2020/12/06 01:53:53;;;;;;;11.38;9.40;;;;;;;19.05;36.11;94630.97;5007551;28;20080;-49
2020/12/06 01:56:20;;;;;;;12.52;10.23;;;;;;;19.08;35.63;94632.16;5014707;28;20049;-51
2020/12/06 01:58:47;;;;;;;13.85;9.43;;;;;;;18.86;36.40;94627.31;5015659;28;20065;-51
2020/12/06 02:01:14;;;;;;;12.55;9.77;;;;;;;19.01;35.85;94635.38;5015818;28;20049;-49
2020/12/06 02:03:41;;;;;;;11.80;8.85;;;;;;;19.62;34.76;94629.22;5011185;28;20057;-51
2020/12/06 02:06:08;;;;;;;12.25;9.57;;;;;;;19.77;34.31;94633.03;4995480;28;20446;-54
2020/12/06 02:08:35;;;;;;;12.55;9.43;;;;;;;18.72;36.37;94628.41;4995620;28;20441;-48
2020/12/06 02:11:04;;;;;;;12.70;9.85;;;;;;;19.24;35.25;94626.94;4995991;28;20053;-49
2020/12/06 02:13:31;;;;;;;11.27;9.35;;;;;;;19.16;35.44;94625.97;5003799;28;20051;-49
2020/12/06 02:15:58;;;;;;;14.13;10.25;;;;;;;18.56;36.83;94629.38;5015515;28;20378;-49
2020/12/06 02:18:25;;;;;;;14.40;11.32;;;;;;;18.88;35.74;94625.88;4999135;28;20054;-48
2020/12/06 02:20:52;;;;;;;25.58;16.15;;;;;;;19.56;34.26;94626.03;5006325;28;20061;-52
2020/12/06 02:23:19;;;;;;;27.17;18.88;;;;;;;19.16;34.66;94627.84;5013846;28;20057;-49
2020/12/06 02:25:46;;;;;;;22.45;15.35;;;;;;;19.60;34.07;94626.13;5015223;28;20053;-50
2020/12/06 02:28:13;;;;;;;21.85;16.15;;;;;;;19.96;33.34;94617.25;5015412;28;20053;-49
2020/12/06 02:30:40;;;;;;;24.02;18.73;;;;;;;19.24;34.50;94626.94;5015292;28;20053;-49
2020/12/06 02:33:07;;;;;;;15.27;12.48;;;;;;;20.39;32.61;94616.47;5015093;28;20045;-49
2020/12/06 02:35:34;;;;;;;14.98;10.85;;;;;;;20.38;32.71;94614.94;5001459;28;20042;-55
2020/12/06 02:38:01;;;;;;;13.57;11.10;;;;;;;20.41;32.47;94610.84;4995784;28;20053;-49
2020/12/06 02:40:28;;;;;;;12.48;9.50;;;;;;;20.13;33.21;94616.97;4995678;28;20050;-47
2020/12/06 02:42:55;;;;;;;13.25;11.55;;;;;;;19.82;32.81;94622.97;4997744;28;20050;-49
2020/12/06 02:45:22;;;;;;;12.55;9.52;;;;;;;20.53;32.11;94611.53;5015146;28;20058;-54
2020/12/06 02:47:49;;;;;;;11.93;9.30;;;;;;;20.73;31.46;94612.38;5003405;28;20441;-48
2020/12/06 02:50:17;;;;;;;11.50;9.77;;;;;;;20.27;31.95;94611.22;5012176;28;20084;-48
2020/12/06 02:52:44;;;;;;;11.82;9.18;;;;;;;20.42;31.77;94602.53;5014800;28;20053;-48
2020/12/06 02:55:11;;;;;;;12.18;9.55;;;;;;;20.15;31.96;94606.78;5015260;28;20057;-51
2020/12/06 02:57:38;;;;;;;11.45;9.30;;;;;;;20.60;31.43;94601.09;5015046;28;20061;-50
2020/12/06 03:00:05;;;;;;;11.77;8.82;;;;;;;19.90;32.98;94608.00;5015171;28;20049;-50
2020/12/06 03:02:32;;;;;;;11.15;9.05;;;;;;;20.31;32.26;94596.94;5015058;28;20052;-47
2020/12/06 03:04:59;;;;;;;11.05;9.27;;;;;;;20.23;32.59;94603.19;5014689;28;20049;-49
2020/12/06 03:07:26;;;;;;;12.23;9.73;;;;;;;20.06;32.84;94600.84;5014968;28;20069;-49
2020/12/06 03:09:53;;;;;;;11.43;10.18;;;;;;;20.43;32.15;94587.38;5015052;28;20060;-48
2020/12/06 03:12:20;;;;;;;17.48;13.40;;;;;;;19.47;33.41;94598.84;5014995;28;20057;-51
2020/12/06 03:14:47;;;;;;;15.20;13.38;;;;;;;18.89;34.52;94593.00;4999324;28;20050;-51
2020/12/06 03:17:14;;;;;;;13.27;11.23;;;;;;;20.08;32.48;94595.97;5001295;28;20437;-52
2020/12/06 03:19:41;;;;;;;12.98;9.38;;;;;;;20.82;31.71;94601.59;5014228;28;20054;-51
2020/12/06 03:22:08;;;;;;;10.75;8.93;;;;;;;20.65;31.63;94592.09;4998780;28;20053;-47
2020/12/06 03:24:35;;;;;;;12.65;10.65;;;;;;;19.43;33.65;94584.72;5013092;28;20049;-47
2020/12/06 03:27:03;;;;;;;13.45;10.38;;;;;;;20.01;32.60;94593.13;5018338;28;20050;-50
2020/12/06 03:29:30;;;;;;;12.20;10.35;;;;;;;19.27;33.73;94594.50;5018352;28;20057;-50
2020/12/06 03:31:57;;;;;;;12.50;9.70;;;;;;;18.79;35.56;94590.81;4999050;28;20074;-48
2020/12/06 03:34:24;;;;;;;11.63;9.77;;;;;;;18.92;35.22;94589.69;5011235;28;20045;-47
2020/12/06 03:36:51;;;;;;;12.95;10.52;;;;;;;18.03;36.54;94596.66;5018040;28;20053;-48
2020/12/06 03:39:18;;;;;;;12.15;9.75;;;;;;;18.23;36.07;94601.09;5000280;28;20050;-48
2020/12/06 03:41:46;;;;;;;13.93;10.25;;;;;;;17.51;37.11;94595.22;4999507;28;20050;-49
2020/12/06 03:44:13;;;;;;;14.55;11.18;;;;;;;17.25;38.18;94595.41;5017668;28;20045;-48
2020/12/06 03:46:40;;;;;;;13.88;11.70;;;;;;;17.30;37.33;94598.97;5015435;28;20046;-48
2020/12/06 03:49:07;;;;;;;13.82;10.88;;;;;;;17.31;38.25;94603.16;5010605;28;20058;-47
2020/12/06 03:51:34;;;;;;;13.73;10.80;;;;;;;17.22;38.49;94596.06;5018019;28;20084;-48
2020/12/06 03:54:01;;;;;;;16.65;11.52;;;;;;;17.20;38.59;94606.19;5017585;28;20056;-48
2020/12/06 03:56:29;;;;;;;15.40;12.77;;;;;;;17.15;38.02;94600.28;5013410;28;20045;-49
2020/12/06 03:58:56;;;;;;;16.85;12.38;;;;;;;17.53;37.77;94600.19;4997865;28;20058;-49
2020/12/06 04:01:23;;;;;;;16.95;13.77;;;;;;;17.05;38.22;94590.91;5037471;28;20056;-50
2020/12/06 04:03:50;;;;;;;16.48;12.65;;;;;;;16.81;39.10;94602.06;5037629;28;20049;-50
2020/12/06 04:06:17;;;;;;;18.00;13.65;;;;;;;17.31;38.53;94600.50;5036208;28;20049;-50
2020/12/06 04:08:44;;;;;;;15.18;12.20;;;;;;;17.37;38.71;94596.56;5037349;28;20053;-49
2020/12/06 04:11:11;;;;;;;16.88;12.40;;;;;;;17.40;38.48;94601.97;5037100;28;20057;-49
2020/12/06 04:13:38;;;;;;;16.08;12.75;;;;;;;17.31;38.88;94598.63;5037345;28;20049;-49
2020/12/06 04:16:05;;;;;;;16.42;12.48;;;;;;;17.37;39.00;94594.69;5037230;28;20364;-51
2020/12/06 04:18:32;;;;;;;19.92;14.00;;;;;;;17.38;39.19;94598.88;5019640;28;20053;-48
2020/12/06 04:20:59;;;;;;;17.20;11.98;;;;;;;17.98;37.55;94589.69;5016855;28;20057;-50
2020/12/06 04:23:28;;;;;;;19.20;13.57;;;;;;;17.78;37.46;94591.28;5017364;28;20053;-49
2020/12/06 04:25:55;;;;;;;17.63;12.68;;;;;;;17.84;37.46;94589.97;5017046;28;20433;-49
2020/12/06 04:28:22;;;;;;;21.42;13.65;;;;;;;17.49;38.04;94594.00;5016078;28;20042;-51
2020/12/06 04:30:49;;;;;;;19.52;13.55;;;;;;;17.12;38.88;94596.44;5015731;28;20428;-53
2020/12/06 04:33:16;;;;;;;24.30;17.27;;;;;;;17.38;38.48;94588.31;5017131;28;20077;-50
2020/12/06 04:35:44;;;;;;;18.77;13.48;;;;;;;17.91;37.17;94593.94;5016946;28;20434;-48
2020/12/06 04:38:11;;;;;;;21.02;14.52;;;;;;;17.41;38.06;94586.91;5017038;28;20050;-48
2020/12/06 04:40:38;;;;;;;17.13;12.98;;;;;;;17.44;38.00;94581.75;5016629;28;20372;-49
2020/12/06 04:43:06;;;;;;;17.52;12.07;;;;;;;18.28;36.64;94574.44;5016934;28;20050;-49
2020/12/06 04:45:33;;;;;;;14.45;10.38;;;;;;;17.94;37.82;94583.50;5016732;28;20054;-48
2020/12/06 04:48:04;;;;;;;13.90;10.45;;;;;;;17.92;37.73;94584.91;5003678;28;20046;-49
2020/12/06 04:50:33;;;;;;;11.32;9.27;;;;;;;18.13;37.69;94580.34;5007247;28;20053;-48
2020/12/06 04:53:03;;;;;;;12.70;9.93;;;;;;;18.10;37.39;94592.34;5016715;28;20053;-52
2020/12/06 04:55:32;;;;;;;12.43;10.05;;;;;;;18.48;36.45;94589.44;5016941;28;20045;-50
2020/12/06 04:58:00;;;;;;;11.57;8.93;;;;;;;18.08;38.23;94599.06;5016818;28;20053;-50
2020/12/06 05:00:37;;;;;;;14.93;9.68;;;;;;;18.33;37.22;94600.66;5008878;28;20049;-50
2020/12/06 05:03:10;;;;;;;10.55;8.57;;;;;;;18.91;36.59;94598.72;5016378;28;20046;-49
2020/12/06 05:05:41;;;;;;;10.93;8.45;;;;;;;19.43;35.36;94592.66;5001652;28;20081;-47
2020/12/06 05:08:12;;;;;;;11.52;8.75;;;;;;;18.48;37.12;94597.41;4997082;28;20054;-48
2020/12/06 05:10:40;;;;;;;10.88;8.50;;;;;;;18.29;37.74;94604.31;4997890;28;20054;-51
2020/12/06 05:13:08;;;;;;;13.15;9.70;;;;;;;18.49;37.00;94604.22;4996875;28;20054;-48
2020/12/06 05:15:36;;;;;;;14.02;9.75;;;;;;;18.06;37.96;94609.22;4996577;28;20046;-48
2020/12/06 05:18:03;;;;;;;12.07;9.35;;;;;;;18.26;37.89;94610.25;5009528;28;20068;-49
2020/12/06 05:20:31;;;;;;;11.38;8.48;;;;;;;18.41;37.36;94602.44;5016289;28;20065;-47
2020/12/06 05:22:58;;;;;;;11.25;8.50;;;;;;;18.34;37.90;94596.91;5016248;28;20050;-48
2020/12/06 05:25:25;;;;;;;12.15;8.45;;;;;;;18.15;38.30;94592.16;5015510;28;20046;-49
2020/12/06 05:27:53;;;;;;;13.27;8.15;;;;;;;18.46;37.75;94586.34;5016264;28;20049;-48
2020/12/06 05:30:20;;;;;;;10.68;8.10;;;;;;;18.55;37.39;94594.19;5015927;28;20061;-48
2020/12/06 05:32:48;;;;;;;10.45;8.40;;;;;;;18.23;38.06;94598.47;5016147;28;20064;-49
2020/12/06 05:35:15;;;;;;;9.88;8.02;;;;;;;18.19;38.15;94600.19;5016188;28;20048;-48
2020/12/06 05:37:43;;;;;;;9.23;7.95;;;;;;;18.65;37.78;94598.28;5015968;28;20042;-47
2020/12/06 05:40:12;;;;;;;10.60;7.93;;;;;;;18.78;36.94;94610.44;5015790;28;20058;-49
2020/12/06 05:42:43;;;;;;;12.02;7.32;;;;;;;19.21;36.51;94617.78;5013389;28;20056;-48
2020/12/06 05:45:11;;;;;;;12.15;8.05;;;;;;;19.33;36.24;94611.72;4996207;28;20049;-49
2020/12/06 05:47:39;;;;;;;12.00;7.57;;;;;;;18.71;37.04;94608.31;5005526;28;20053;-47
2020/12/06 05:50:07;;;;;;;10.27;7.47;;;;;;;18.56;37.70;94624.09;5015659;28;20057;-52
2020/12/06 05:52:35;;;;;;;9.52;7.45;;;;;;;19.09;36.54;94615.94;5015722;28;20372;-48
2020/12/06 05:55:03;;;;;;;11.75;7.40;;;;;;;19.39;36.09;94613.00;5015798;28;20108;-50
2020/12/06 05:57:31;;;;;;;11.43;7.55;;;;;;;19.34;35.89;94626.50;5015537;28;20041;-50
2020/12/06 06:00:00;;;;;;;9.20;6.95;;;;;;;19.71;35.55;94616.59;5015448;28;20483;-49
2020/12/06 06:02:27;;;;;;;8.57;7.20;;;;;;;19.23;36.32;94628.06;4997037;28;20049;-49
2020/12/06 06:05:02;;;;;;;9.50;7.40;;;;;;;19.23;36.56;94631.47;4995927;28;20454;-49
2020/12/06 06:07:31;;;;;;;9.65;6.93;;;;;;;19.14;36.49;94627.41;4995807;28;20053;-48
2020/12/06 06:10:04;;;;;;;9.10;7.07;;;;;;;19.34;36.12;94621.19;4999150;28;20045;-49
2020/12/06 06:12:32;;;;;;;9.80;7.22;;;;;;;19.32;36.20;94626.84;5015539;28;20053;-49
2020/12/06 06:15:01;;;;;;;10.73;7.25;;;;;;;19.41;35.88;94621.41;5015592;28;20080;-51
2020/12/06 06:17:30;;;;;;;9.65;7.07;;;;;;;19.20;36.22;94632.16;5006366;28;20057;-51
2020/12/06 06:19:57;;;;;;;11.20;7.22;;;;;;;19.40;36.05;94641.06;4999441;28;20477;-48
2020/12/06 06:22:34;;;;;;;11.73;7.55;;;;;;;19.26;36.32;94632.72;5015449;28;20346;-49
2020/12/06 06:25:02;;;;;;;9.05;7.15;;;;;;;19.48;35.95;94632.19;5014429;28;20054;-49
2020/12/06 06:27:38;;;;;;;8.40;6.65;;;;;;;20.44;33.88;94634.06;5010701;28;20050;-51
2020/12/06 06:30:06;;;;;;;9.93;6.97;;;;;;;19.58;35.63;94646.91;5000183;28;20465;-50
2020/12/06 06:32:36;;;;;;;10.40;8.10;;;;;;;19.65;35.29;94626.66;5015346;28;20050;-48
2020/12/06 06:35:06;;;;;;;10.57;7.32;;;;;;;19.63;35.10;94634.19;5008152;28;20046;-48
2020/12/06 06:37:35;;;;;;;10.07;7.15;;;;;;;19.76;34.88;94628.81;5019359;28;20056;-48
2020/12/06 06:40:07;;;;;;;10.20;7.25;;;;;;;19.92;34.52;94625.13;5035157;28;20053;-49
2020/12/06 06:42:37;;;;;;;8.90;6.75;;;;;;;19.85;34.64;94622.28;5035059;28;20475;-48
2020/12/06 06:45:09;;;;;;;9.77;6.57;;;;;;;19.76;34.81;94626.94;5035012;28;20049;-48
2020/12/06 06:47:38;;;;;;;8.18;6.22;;;;;;;19.93;34.63;94633.84;5022442;28;20047;-48
2020/12/06 06:50:07;;;;;;;9.27;6.72;;;;;;;20.01;34.66;94638.22;5015254;28;20576;-52
2020/12/06 06:52:35;;;;;;;10.60;7.18;;;;;;;19.80;35.04;94637.69;5015269;28;20049;-54
2020/12/06 06:55:03;;;;;;;8.80;6.50;;;;;;;19.66;35.23;94624.78;5018096;28;20053;-49
2020/12/06 06:57:31;;;;;;;10.60;7.57;;;;;;;19.85;34.93;94621.50;5017869;28;20073;-47
2020/12/06 07:00:00;;;;;;;9.90;6.90;;;;;;;20.11;34.22;94635.09;5018991;28;20054;-49
2020/12/06 07:02:32;;;;;;;10.30;7.10;;;;;;;20.24;34.08;94625.94;5018957;28;20053;-51
2020/12/06 07:05:00;;;;;;;9.93;6.97;;;;;;;20.17;34.04;94635.63;5018916;28;20358;-49
2020/12/06 07:07:43;;;;;;;10.00;7.40;;;;;;;19.98;34.33;94634.38;5017527;28;20060;-49
2020/12/06 07:10:12;;;;;;;8.13;6.47;;;;;;;20.19;33.90;94631.50;5018805;28;20042;-51
2020/12/06 07:12:52;;;;;;;9.10;6.95;;;;;;;20.35;33.47;94622.81;5018649;28;20046;-50
2020/12/06 07:15:21;;;;;;;10.50;7.35;;;;;;;20.44;33.50;94623.44;5018301;28;20053;-51
2020/12/06 07:17:50;;;;;;;11.18;8.40;;;;;;;20.21;33.88;94610.72;5022301;28;20068;-51
2020/12/06 07:20:19;;;;;;;10.50;7.97;;;;;;;20.54;33.10;94602.44;5038690;28;20053;-48
2020/12/06 07:22:47;;;;;;;10.88;8.25;;;;;;;20.37;33.38;94612.63;5038211;28;20057;-49
2020/12/06 07:25:16;;;;;;;11.60;8.38;;;;;;;20.45;33.55;94615.13;5038115;28;20045;-48
2020/12/06 07:27:43;;;;;;;10.98;8.50;;;;;;;20.44;33.57;94607.50;5037791;28;20049;-52
2020/12/06 07:30:15;;;;;;;12.52;8.77;;;;;;;20.68;32.69;94611.88;5038219;28;20053;-48
2020/12/06 07:32:42;;;;;;;13.65;8.75;;;;;;;20.57;32.93;94606.31;5038034;28;20049;-50
2020/12/06 07:35:12;;;;;;;11.50;8.13;;;;;;;20.36;33.19;94605.78;5038025;28;20041;-49
2020/12/06 07:37:40;;;;;;;11.68;8.25;;;;;;;20.70;32.26;94610.41;5031476;28;20041;-48
2020/12/06 07:40:09;;;;;;;11.07;8.65;;;;;;;20.39;33.54;94605.09;5018252;28;20053;-48
2020/12/06 07:42:37;;;;;;;11.02;8.63;;;;;;;21.03;32.13;94602.06;5016263;28;20384;-50
2020/12/06 07:45:06;;;;;;;11.57;8.82;;;;;;;20.83;32.46;94614.53;5017793;28;20184;-51
2020/12/06 07:47:33;;;;;;;12.70;9.00;;;;;;;20.61;32.93;94623.88;5008689;28;20053;-48
2020/12/06 07:50:01;;;;;;;10.75;7.90;;;;;;;20.78;32.52;94625.41;5016381;28;20064;-51
2020/12/06 07:52:29;;;;;;;11.52;8.70;;;;;;;20.59;32.89;94612.06;5017953;28;20476;-50
2020/12/06 07:54:58;;;;;;;10.90;7.80;;;;;;;21.20;31.94;94622.19;5017924;28;20392;-51
2020/12/06 07:57:37;;;;;;;12.15;8.52;;;;;;;20.58;32.73;94615.84;5017776;28;20042;-49
2020/12/06 08:00:28;;;;;;;12.45;8.35;;;;;;;20.82;32.38;94620.19;5017609;28;20053;-53
2020/12/06 08:02:58;;;;;;;11.25;8.20;;;;;;;21.00;31.83;94612.63;5008213;28;20050;-50
2020/12/06 08:05:30;;;;;;;12.07;8.95;;;;;;;20.59;32.80;94612.84;5016564;28;20045;-50
2020/12/06 08:08:02;;;;;;;10.00;7.97;;;;;;;20.58;32.69;94613.94;5016709;28;20053;-49
2020/12/06 08:10:29;;;;;;;11.00;8.05;;;;;;;21.03;31.81;94595.97;5016427;28;20045;-49
2020/12/06 08:12:57;;;;;;;11.15;7.97;;;;;;;21.45;30.78;94622.75;5017574;28;20045;-49
2020/12/06 08:15:28;;;;;;;11.10;8.32;;;;;;;21.09;31.69;94590.06;5017488;28;20049;-50
2020/12/06 08:17:56;;;;;;;9.93;8.07;;;;;;;20.58;32.75;94591.94;5013550;28;20053;-48
2020/12/06 08:20:27;;;;;;;10.40;8.65;;;;;;;20.74;32.40;94576.75;5017140;28;20125;-48
2020/12/06 08:22:58;;;;;;;13.30;9.38;;;;;;;20.42;33.26;94589.28;5016937;28;20381;-49
2020/12/06 08:25:33;;;;;;;11.93;8.98;;;;;;;20.81;32.58;94590.19;5017232;28;20045;-50
2020/12/06 08:28:02;;;;;;;11.15;9.18;;;;;;;20.89;32.25;94581.28;5017268;28;20048;-49
2020/12/06 08:30:31;;;;;;;12.27;9.38;;;;;;;21.00;32.14;94591.34;5017142;28;20042;-49
2020/12/06 08:32:59;;;;;;;11.30;8.90;;;;;;;21.19;31.84;94575.44;5017226;28;20049;-48
2020/12/06 08:36:01;;;;;;;12.55;9.55;;;;;;;20.69;32.65;94581.53;5017110;28;20053;-51
2020/12/06 08:38:30;;;;;;;14.25;9.35;;;;;;;21.59;31.02;94585.78;4976064;28;20454;-54
2020/12/06 08:41:01;;;;;;;13.50;10.32;;;;;;;21.37;31.43;94579.28;5009510;28;20056;-48
2020/12/06 08:43:47;;;;;;;14.10;9.75;;;;;;;21.80;30.93;94586.19;5017091;28;20050;-49
2020/12/06 08:46:23;;;;;;;12.93;10.18;;;;;;;21.56;31.38;94581.16;5014545;28;20045;-46
2020/12/06 08:48:55;;;;;;;12.35;10.10;;;;;;;21.27;31.58;94574.50;5016311;28;20058;-49
2020/12/06 08:51:29;;;;;;;14.68;9.90;;;;;;;21.76;30.79;94579.28;5016596;28;20054;-52
2020/12/06 08:53:58;;;;;;;16.00;10.43;;;;;;;22.43;29.85;94585.06;5016869;28;20353;-51
2020/12/06 08:56:36;;;;;;;13.35;10.50;;;;;;;21.39;31.59;94566.41;5016701;28;20464;-52
2020/12/06 08:59:04;;;;;;;14.32;10.85;;;;;;;21.46;31.54;94568.44;5016868;28;20790;-49
2020/12/06 09:01:31;;;;;;;13.27;10.30;;;;;;;21.82;30.96;94567.22;5016545;28;20053;-49
2020/12/06 09:03:59;;;;;;;15.13;10.88;;;;;;;21.24;31.71;94567.22;5016642;28;20053;-51
2020/12/06 09:06:26;;;;;;;13.32;10.32;;;;;;;22.15;30.18;94570.16;5016461;28;20133;-51
2020/12/06 09:08:53;;;;;;;13.63;10.57;;;;;;;21.97;30.73;94568.25;5016378;28;20464;-47
2020/12/06 09:11:21;;;;;;;13.50;11.30;;;;;;;22.21;30.62;94567.19;5004824;28;20056;-52
2020/12/06 09:13:49;;;;;;;13.63;10.57;;;;;;;21.72;31.11;94578.44;4996932;28;20058;-53
2020/12/06 09:16:16;;;;;;;14.80;10.70;;;;;;;21.62;31.52;94553.19;4996568;28;20508;-52
2020/12/06 09:18:43;;;;;;;12.68;10.00;;;;;;;22.56;29.91;94582.97;5013921;28;20069;-51
2020/12/06 09:21:10;;;;;;;12.05;9.98;;;;;;;21.69;31.18;94548.00;5016111;28;20061;-51
2020/12/06 09:23:37;;;;;;;14.93;10.52;;;;;;;21.62;31.32;94557.75;5015596;28;20404;-48
2020/12/06 09:26:05;;;;;;;14.02;9.75;;;;;;;22.42;30.05;94544.34;5015529;28;20057;-52
2020/12/06 09:28:33;;;;;;;14.02;10.63;;;;;;;21.94;30.63;94532.47;5016210;28;20056;-49
2020/12/06 09:31:02;;;;;;;14.00;10.85;;;;;;;21.34;31.47;94541.97;5016266;28;20054;-50
2020/12/06 09:33:29;;;;;;;12.30;10.05;;;;;;;21.66;31.13;94531.97;5016070;28;20045;-50
2020/12/06 09:35:57;;;;;;;12.73;10.40;;;;;;;21.37;31.48;94544.72;5016012;28;20046;-51
2020/12/06 09:38:24;;;;;;;13.68;10.63;;;;;;;22.03;30.40;94535.66;5016353;28;20042;-54
2020/12/06 09:40:51;;;;;;;12.32;10.57;;;;;;;21.73;30.69;94553.38;5015886;28;20457;-50
2020/12/06 09:43:18;;;;;;;14.18;11.38;;;;;;;21.57;31.17;94529.50;5016048;28;20053;-48
2020/12/06 09:45:46;;;;;;;13.60;10.75;;;;;;;21.48;31.28;94537.72;5015580;28;20042;-50
2020/12/06 09:48:13;;;;;;;12.23;10.23;;;;;;;21.27;31.71;94524.00;5001170;28;20042;-48
2020/12/06 09:50:41;;;;;;;12.48;11.07;;;;;;;21.50;31.31;94529.38;4995958;28;20061;-48
2020/12/06 09:53:08;;;;;;;14.50;10.93;;;;;;;21.67;30.94;94506.91;4996238;28;20531;-51
2020/12/06 09:55:35;;;;;;;14.23;11.25;;;;;;;21.21;31.63;94528.03;5000121;28;20041;-50
2020/12/06 09:58:02;;;;;;;13.95;10.95;;;;;;;21.95;30.73;94517.28;5015811;28;20061;-57
2020/12/06 10:00:29;;;;;;;12.98;10.98;;;;;;;21.37;31.35;94515.47;5015844;28;20064;-50
2020/12/06 10:02:56;;;;;;;13.15;10.65;;;;;;;21.21;31.67;94520.81;5015757;28;20078;-54
2020/12/06 10:05:23;;;;;;;13.77;10.80;;;;;;;21.45;31.47;94514.47;5014342;28;20346;-53
2020/12/06 10:07:50;;;;;;;13.65;11.40;;;;;;;21.49;31.69;94506.56;5015622;28;20054;-50
2020/12/06 10:10:17;;;;;;;14.13;11.38;;;;;;;21.27;31.92;94497.41;5015669;28;20053;-52
2020/12/06 10:12:45;;;;;;;13.48;10.73;;;;;;;20.99;32.88;94494.16;5015291;28;20050;-50
2020/12/06 10:15:12;;;;;;;13.52;10.68;;;;;;;20.98;32.63;94519.19;5015202;28;20338;-50
2020/12/06 10:17:39;;;;;;;16.20;11.63;;;;;;;20.83;32.81;94502.94;5005359;28;20061;-52
2020/12/06 10:20:07;;;;;;;18.23;13.45;;;;;;;21.02;32.49;94482.81;4999983;28;20377;-53
2020/12/06 10:22:34;;;;;;;15.15;11.32;;;;;;;21.23;32.31;94493.88;5015493;28;20049;-51
2020/12/06 10:25:01;;;;;;;16.35;11.88;;;;;;;20.75;33.03;94481.88;5015380;28;20045;-52
2020/12/06 10:27:28;;;;;;;30.33;23.48;;;;;;;21.36;32.06;94484.69;5015039;28;20084;-53
2020/12/06 10:29:56;;;;;;;15.18;11.00;;;;;;;21.20;32.39;94483.94;5019561;28;20057;-51
2020/12/06 10:32:23;;;;;;;13.40;11.13;;;;;;;20.99;32.55;94478.97;5019462;28;20046;-52
2020/12/06 10:34:50;;;;;;;15.10;11.35;;;;;;;21.94;31.41;94484.56;5019296;28;20053;-52
2020/12/06 10:37:17;;;;;;;14.70;11.52;;;;;;;22.61;30.30;94476.88;5017732;28;20050;-55
2020/12/06 10:39:44;;;;;;;13.43;10.73;;;;;;;22.22;30.97;94470.22;4999588;28;20389;-54
2020/12/06 10:42:11;;;;;;;12.13;10.07;;;;;;;22.98;29.78;94479.69;4999816;28;20046;-52
2020/12/06 10:44:38;;;;;;;12.23;10.15;;;;;;;23.74;27.91;94457.31;4999532;28;20046;-51
2020/12/06 10:47:05;;;;;;;12.60;10.02;;;;;;;22.97;29.40;94456.06;5008539;28;20047;-51
2020/12/06 10:49:32;;;;;;;11.98;10.35;;;;;;;23.00;29.09;94460.69;5005279;28;20442;-51
2020/12/06 10:51:59;;;;;;;12.50;9.90;;;;;;;22.83;29.73;94482.53;4999608;28;20057;-51
2020/12/06 10:54:26;;;;;;;14.98;10.20;;;;;;;22.99;29.34;94451.16;4999553;28;20046;-52
2020/12/06 10:56:54;;;;;;;15.40;10.43;;;;;;;22.79;29.49;94463.81;5012130;28;20060;-50
2020/12/06 10:59:21;;;;;;;12.30;10.25;;;;;;;22.95;29.27;94458.34;5018891;28;20054;-52
2020/12/06 11:01:48;;;;;;;12.15;10.10;;;;;;;22.31;30.30;94460.84;5019062;28;20050;-55
2020/12/06 11:04:15;;;;;;;13.45;10.63;;;;;;;22.03;31.04;94450.50;5000185;28;20050;-51
2020/12/06 11:06:42;;;;;;;14.75;11.63;;;;;;;22.20;30.88;94454.59;5009995;28;20065;-58
2020/12/06 11:09:09;;;;;;;13.38;11.00;;;;;;;22.14;31.04;94459.47;5018842;28;20372;-50
2020/12/06 11:11:36;;;;;;;12.73;11.15;;;;;;;21.90;31.43;94435.84;5018603;28;20041;-55
2020/12/06 11:14:03;;;;;;;15.13;11.82;;;;;;;21.95;31.23;94448.09;5018794;28;20072;-53
2020/12/06 11:16:30;;;;;;;15.63;12.07;;;;;;;21.41;32.31;94436.53;5014183;28;20054;-51
2020/12/06 11:18:57;;;;;;;15.75;11.73;;;;;;;21.19;32.42;94440.66;4998552;28;20070;-58
2020/12/06 11:21:24;;;;;;;16.38;11.77;;;;;;;21.06;32.72;94436.59;4998922;28;20057;-54
2020/12/06 11:23:54;;;;;;;15.52;12.05;;;;;;;21.26;32.34;94434.72;4998842;28;20065;-52
2020/12/06 11:26:22;;;;;;;15.35;11.10;;;;;;;20.79;32.77;94433.00;5006374;28;20050;-60